This is the latest recevied weather packets stored in our database for station/object AD7ZD. If no packets are shown the sender has not sent any weather packets the latest 10 day(s).
| Time | Temp. | Humidity | Pressure | Rain* | Wind** | Luminosity | Snow |
|---|---|---|---|---|---|---|---|
| 1777657077 | 17.78° C | 22% | 1017.2 hPa | 0 mm | - | 725 W/m² | - |
| 1777656774 | 17.78° C | 23% | 1017.4 hPa | 0 mm | - | 651 W/m² | - |
| 1777656469 | 18.89° C | 22% | 1017.5 hPa | 0 mm | - | 823 W/m² | - |
| 1777656165 | 18.33° C | 23% | 1017.4 hPa | 0 mm | - | 836 W/m² | - |
| 1777655860 | 17.78° C | 24% | 1017.6 hPa | 0 mm | - | 785 W/m² | - |
| 1777655558 | 17.22° C | 24% | 1017.5 hPa | 0 mm | - | 746 W/m² | - |
| 1777655255 | 17.22° C | 24% | 1017.6 hPa | 0 mm | - | 712 W/m² | - |
| 1777654951 | 17.78° C | 23% | 1017.7 hPa | 0 mm | - | 766 W/m² | - |
| 1777654649 | 17.78° C | 23% | 1017.8 hPa | 0 mm | - | 746 W/m² | - |
| 1777654346 | 17.22° C | 24% | 1017.5 hPa | 0 mm | - | 733 W/m² | - |
| 1777654044 | 16.67° C | 24% | 1017.7 hPa | 0 mm | - | 696 W/m² | - |
| 1777653741 | 16.11° C | 24% | 1017.7 hPa | 0 mm | - | 552 W/m² | - |
| 1777653437 | 16.67° C | 26% | 1017.6 hPa | 0 mm | - | 559 W/m² | - |
| 1777653134 | 16.11° C | 27% | 1017.4 hPa | 0 mm | - | 592 W/m² | - |
| 1777652830 | 15.56° C | 28% | 1017.8 hPa | 0 mm | - | 620 W/m² | - |
| 1777652527 | 15.56° C | 28% | 1017.6 hPa | 0 mm | - | 524 W/m² | - |
| 1777652224 | 16.11° C | 27% | 1017.5 hPa | 0 mm | - | 573 W/m² | - |
| 1777651921 | 15.56° C | 28% | 1017.5 hPa | 0 mm | - | 464 W/m² | - |
| 1777651617 | 15.56° C | 28% | 1017.8 hPa | 0 mm | - | 459 W/m² | - |
| 1777651315 | 15° C | 27% | 1017.9 hPa | 0 mm | - | 432 W/m² | - |
| 1777651011 | 15° C | 27% | 1017.7 hPa | 0 mm | - | 390 W/m² | - |
| 1777650709 | 15° C | 26% | 1017.7 hPa | 0 mm | - | 355 W/m² | - |
| 1777650406 | 15.56° C | 26% | 1017.5 hPa | 0 mm | - | 343 W/m² | - |
| 1777650103 | 15.56° C | 25% | 1017.6 hPa | 0 mm | - | 341 W/m² | - |
| 1777649800 | 16.11° C | 25% | 1017.5 hPa | 0 mm | - | 346 W/m² | - |
* Rain latest hour (hover to see other rain measurements)
** Current wind speed in m/s (hover to see current wind gust speed)